Terminal Aerodrome Forecast
Issued by NWS

Home | Current Version | Previous Version | Text Only | Print | Product List | Glossary On
Versions: 1 2 3 4 5 6 7 8 9 10 11 12 13
000
FTUS45 KGJT 261734
TAFTEX
TAF
KTEX 261734Z 2618/2718 15010G20KT P6SM BKN200
     FM262000 20015G25KT P6SM BKN200
     FM270200 17008KT P6SM SCT150
     FM270400 17006KT P6SM SCT200
     FM271500 17007KT P6SM SKC
     FM271700 19008KT P6SM SKC=

USA.gov is the U.S. government's official web portal to all federal, state and local government web resources and services.